Pensacola Regional Airport
KPNS : now visible

Airfield :











YOU CAN JOIN US ON...

 
LOGIN :

Register | Disclaimer

   EN    FR    IT 

 









Legend :    VFR   Marginal VFR   IFR   Intensive IFR   Very Intensive IFR
Visi :
Ceiling :
>= 8 km
>= 3000ft
5 to 8 km
1000 to 3000 ft
1500m to 5 km
500 to 1000 ft
800 to 1500m
200 to 500 ft
< 800m
< 200 ft
Symbols :   Thunderstorms  Fog  Heavy snow  Heavy precipitations  Wind > 20 kt






- Airport Elevation : 121 ft
- IATA code : PNS


KPNS - Pensacola Regional

CURRENT METAR :
  • 122353Z 35015G26KT 10SM CLR 04/M01 A3020 RMK AO2 PK WND 36029/2327 SLP229 T00441011 10089 20044 53019

EXPIRED METARs :
  • 122253Z 35014G23KT 10SM CLR 06/M01 A3017 RMK AO2 PK WND 35026/2234 SLP221 T00561011
  • 122153Z 34017G25KT 10SM CLR 08/00 A3015 RMK AO2 PK WND 01032/2054 SLP212 T00780000

TAF KPNS
Valid from the 13 at 00:00 until the 14 at 00:00 UTC


122328Z 1300/1324 35014G23KT P6SM FEW180 BKN250
FM130300 01011KT P6SM FEW250
FM131500 06008KT P6SM SKC



MET'MAP, your aeronautical weather chart ! - Copyright ORBIFLY December 2007 - Disclaimer

ORBIFLY MET'MAP TEAM :

Programming & Development : Alexandra Zaïnal
Concept & Development : Baudouin d'Aumeries
Co-Development & Prog : Marc-Olivier Méhu
Technical & hardware support : Manuel Goepfert

Contact : metmap@orbifly.com




SOURCES & CREDITS :

   NOAA       Earth
Advisory